Time;durP1;ratioP1;P1;durP2;ratioP2;P2;SDS_P1;SDS_P2;PMS_P1;PMS_P2;Temp;Humidity;BMP_temperature;BMP_pressure;BME280_temperature;BME280_humidity;BME280_pressure;Samples;Min_cycle;Max_cycle;Signal;HPM_P1;HPM_P2
2022/08/14 00:02:26;;;;;;;3.45;2.15;;;20.60;98.00;;;;;;5018587;28;20080;-84
2022/08/14 00:04:51;;;;;;;3.97;2.13;;;20.60;98.50;;;;;;5016939;28;20454;-84
2022/08/14 00:07:17;;;;;;;3.33;2.30;;;20.60;98.50;;;;;;5033647;28;20041;-84
2022/08/14 00:09:44;;;;;;;4.72;2.35;;;20.50;98.80;;;;;;5035762;28;20045;-84
2022/08/14 00:12:10;;;;;;;3.45;2.15;;;20.50;98.90;;;;;;5038866;28;20071;-84
2022/08/14 00:14:37;;;;;;;4.63;2.40;;;20.40;99.20;;;;;;5041316;28;20209;-84
2022/08/14 00:17:04;;;;;;;3.70;2.10;;;20.40;99.50;;;;;;5032170;28;20542;-81
2022/08/14 00:19:29;;;;;;;4.40;1.98;;;20.30;99.90;;;;;;5003222;28;20052;-81
2022/08/14 00:21:55;;;;;;;4.55;2.55;;;20.30;99.90;;;;;;5002977;28;20451;-81
2022/08/14 00:24:21;;;;;;;3.25;2.10;;;20.20;99.90;;;;;;5032999;28;20040;-81
2022/08/14 00:26:47;;;;;;;5.57;3.05;;;20.20;99.90;;;;;;5036327;28;20491;-81
2022/08/14 00:29:13;;;;;;;3.63;2.35;;;20.10;99.90;;;;;;5037359;28;20122;-81
2022/08/14 00:31:39;;;;;;;3.47;2.17;;;20.00;99.90;;;;;;5022014;28;20056;-81
2022/08/14 00:34:05;;;;;;;4.22;2.50;;;20.00;99.90;;;;;;5022173;28;20421;-84
2022/08/14 00:36:31;;;;;;;3.50;2.40;;;20.00;99.90;;;;;;5038192;28;20041;-84
2022/08/14 00:38:56;;;;;;;3.40;2.22;;;20.00;99.90;;;;;;5021672;28;20514;-84
2022/08/14 00:41:22;;;;;;;5.32;2.70;;;19.90;99.90;;;;;;5006108;28;20040;-83
2022/08/14 00:43:48;;;;;;;3.80;2.15;;;19.90;99.90;;;;;;5021787;28;20130;-84
2022/08/14 00:46:14;;;;;;;4.93;2.70;;;19.80;99.90;;;;;;5017086;28;20132;-84
2022/08/14 00:48:39;;;;;;;2.90;2.10;;;19.80;99.90;;;;;;5004323;28;20037;-84
2022/08/14 00:51:09;;;;;;;3.70;2.63;;;19.80;99.90;;;;;;5021785;28;20478;-84
2022/08/14 00:53:36;;;;;;;4.38;2.40;;;19.70;99.90;;;;;;5023699;28;20052;-84
2022/08/14 00:56:04;;;;;;;4.15;2.40;;;19.70;99.90;;;;;;5021671;28;20047;-84
2022/08/14 00:58:29;;;;;;;4.50;2.70;;;19.70;99.90;;;;;;5038011;28;20041;-84
2022/08/14 01:00:56;;;;;;;4.32;2.55;;;19.60;99.90;;;;;;5037725;28;20131;-84
2022/08/14 01:03:25;;;;;;;3.80;2.22;;;19.50;99.90;;;;;;5037980;28;20388;-84
2022/08/14 01:05:51;;;;;;;5.32;3.17;;;19.50;99.90;;;;;;5021671;28;20041;-84
2022/08/14 01:08:25;;;;;;;5.47;2.70;;;19.50;99.90;;;;;;5021663;28;20045;-84
2022/08/14 01:10:56;;;;;;;5.25;2.85;;;19.40;99.90;;;;;;5037712;28;20041;-84
2022/08/14 01:13:25;;;;;;;5.20;2.80;;;19.40;99.90;;;;;;5037463;28;20044;-83
2022/08/14 01:15:59;;;;;;;3.92;2.50;;;19.40;99.90;;;;;;5037396;28;20041;-84
2022/08/14 01:21:16;;;;;;;4.40;2.30;;;19.30;99.90;;;;;;5037719;28;20047;-84
2022/08/14 01:23:49;;;;;;;4.22;2.80;;;19.30;99.90;;;;;;5037299;28;20076;-84
2022/08/14 01:26:19;;;;;;;4.50;2.63;;;19.20;99.90;;;;;;5036742;28;20036;-83
2022/08/14 01:28:56;;;;;;;3.65;2.67;;;19.20;99.90;;;;;;5001613;28;20049;-83
2022/08/14 01:31:30;;;;;;;6.20;2.85;;;19.20;99.90;;;;;;5035466;28;20067;-83
2022/08/14 01:33:58;;;;;;;4.22;2.80;;;19.20;99.90;;;;;;5037604;28;20045;-83
2022/08/14 01:36:25;;;;;;;5.60;2.63;;;19.20;99.90;;;;;;5037422;28;20098;-83
2022/08/14 01:38:56;;;;;;;4.85;2.83;;;19.10;99.90;;;;;;5037136;28;20044;-83
2022/08/14 01:41:25;;;;;;;5.25;2.92;;;19.20;99.90;;;;;;5037489;28;20120;-81
2022/08/14 01:44:00;;;;;;;8.70;2.90;;;19.20;99.90;;;;;;5020377;28;20082;-81
2022/08/14 01:46:35;;;;;;;4.10;2.97;;;19.10;99.90;;;;;;5017599;28;20550;-81
2022/08/14 01:49:04;;;;;;;5.25;2.92;;;19.10;99.90;;;;;;5036353;28;20362;-81
2022/08/14 01:51:30;;;;;;;5.50;2.85;;;19.10;99.90;;;;;;5021370;28;20429;-81
2022/08/14 01:54:08;;;;;;;5.50;2.97;;;19.10;99.90;;;;;;5020749;28;20498;-81
2022/08/14 01:56:38;;;;;;;5.72;3.53;;;19.10;99.90;;;;;;5020292;28;20040;-83
2022/08/14 01:59:18;;;;;;;4.68;2.80;;;19.10;99.90;;;;;;5037562;28;20102;-83
2022/08/14 02:01:46;;;;;;;4.40;2.60;;;19.00;99.90;;;;;;5037206;28;20040;-83
2022/08/14 02:04:13;;;;;;;4.85;2.83;;;19.10;99.90;;;;;;5034918;28;20423;-83
2022/08/14 02:06:38;;;;;;;5.07;3.00;;;19.00;99.90;;;;;;5036803;28;20113;-83
2022/08/14 02:09:06;;;;;;;4.28;2.80;;;19.00;99.90;;;;;;5020507;28;20037;-83
2022/08/14 02:11:33;;;;;;;4.50;2.83;;;19.00;99.90;;;;;;5020403;28;20047;-83
2022/08/14 02:14:04;;;;;;;4.90;3.03;;;19.00;99.90;;;;;;5036808;28;20171;-81
2022/08/14 02:16:37;;;;;;;5.18;3.38;;;18.90;99.90;;;;;;5035867;28;20047;-81
2022/08/14 02:19:07;;;;;;;5.93;3.17;;;18.90;99.90;;;;;;5036125;28;20037;-81
2022/08/14 02:21:35;;;;;;;8.02;3.70;;;18.90;99.90;;;;;;5020203;28;20172;-81
2022/08/14 02:24:03;;;;;;;4.82;3.00;;;18.90;99.90;;;;;;5020165;28;20039;-81
2022/08/14 02:26:31;;;;;;;4.95;3.13;;;18.90;99.90;;;;;;5020065;28;20090;-81
2022/08/14 02:29:00;;;;;;;6.35;3.35;;;18.80;99.90;;;;;;5036040;28;20072;-81
2022/08/14 02:31:32;;;;;;;6.05;2.72;;;18.80;99.90;;;;;;5019545;28;20044;-81
2022/08/14 02:33:58;;;;;;;4.95;3.35;;;18.80;99.90;;;;;;5036325;28;20124;-81
2022/08/14 02:36:24;;;;;;;5.75;3.47;;;18.70;99.90;;;;;;5019944;28;20068;-81
2022/08/14 02:38:50;;;;;;;6.32;3.40;;;18.70;99.90;;;;;;5036179;28;20080;-81
2022/08/14 02:41:16;;;;;;;5.38;3.67;;;18.70;99.90;;;;;;5035829;28;20040;-81
2022/08/14 02:43:42;;;;;;;6.70;4.10;;;18.60;99.90;;;;;;5036324;28;20041;-81
2022/08/14 02:46:09;;;;;;;5.55;2.90;;;18.60;99.90;;;;;;5019719;28;20036;-81
2022/08/14 02:48:40;;;;;;;5.53;3.40;;;18.60;99.90;;;;;;5019195;28;20554;-83
2022/08/14 02:51:10;;;;;;;5.38;3.15;;;18.50;99.90;;;;;;5035902;28;20517;-84
2022/08/14 02:53:41;;;;;;;5.55;3.00;;;18.50;99.90;;;;;;5035832;28;20045;-83
2022/08/14 02:56:09;;;;;;;5.18;3.15;;;18.50;99.90;;;;;;5035612;28;20494;-83
2022/08/14 02:58:38;;;;;;;6.78;3.28;;;18.50;99.90;;;;;;5035524;28;20060;-83
2022/08/14 03:01:07;;;;;;;5.28;3.70;;;18.50;99.90;;;;;;5019276;28;20075;-83
2022/08/14 03:03:35;;;;;;;4.93;3.33;;;18.40;99.90;;;;;;5019787;28;20543;-83
2022/08/14 03:06:06;;;;;;;6.32;3.42;;;18.40;99.90;;;;;;5036059;28;20056;-83
2022/08/14 03:08:32;;;;;;;7.07;3.80;;;18.40;99.90;;;;;;5035430;28;20075;-83
2022/08/14 03:11:05;;;;;;;7.03;4.18;;;18.40;99.90;;;;;;5035292;28;20098;-83
2022/08/14 03:13:33;;;;;;;6.82;3.10;;;18.40;99.90;;;;;;5035630;28;20495;-83
2022/08/14 03:15:59;;;;;;;5.95;3.42;;;18.40;99.90;;;;;;5035397;28;20059;-83
2022/08/14 03:18:27;;;;;;;6.47;4.03;;;18.30;99.90;;;;;;5035470;28;20045;-83
2022/08/14 03:20:53;;;;;;;5.38;3.58;;;18.30;99.90;;;;;;5019105;28;20041;-81
2022/08/14 03:23:19;;;;;;;7.55;3.50;;;18.30;99.90;;;;;;5019381;28;20048;-81
2022/08/14 03:25:46;;;;;;;8.30;3.60;;;18.30;99.90;;;;;;5018227;28;20047;-81
2022/08/14 03:28:13;;;;;;;6.38;3.40;;;18.30;99.90;;;;;;5027342;28;20087;-81
2022/08/14 03:30:39;;;;;;;5.32;3.58;;;18.30;99.90;;;;;;5007870;28;20048;-81
2022/08/14 03:33:07;;;;;;;6.40;4.07;;;18.20;99.90;;;;;;5035015;28;20048;-81
2022/08/14 03:35:33;;;;;;;6.40;3.75;;;18.20;99.90;;;;;;4999299;28;20048;-81
2022/08/14 03:38:10;;;;;;;7.30;3.50;;;18.20;99.90;;;;;;4999324;28;20369;-81
2022/08/14 03:40:38;;;;;;;5.80;3.55;;;18.20;99.90;;;;;;5018244;28;20513;-81
2022/08/14 03:43:09;;;;;;;6.25;4.05;;;18.20;99.90;;;;;;5035542;28;20037;-81
2022/08/14 03:45:38;;;;;;;5.32;3.22;;;18.20;99.90;;;;;;5035238;28;20045;-81
2022/08/14 03:48:29;;;;;;;6.50;3.95;;;18.20;99.90;;;;;;5035690;28;20422;-81
2022/08/14 03:50:54;;;;;;;6.45;3.92;;;18.20;99.90;;;;;;5028938;28;20041;-81
2022/08/14 03:53:20;;;;;;;6.40;3.88;;;18.20;99.90;;;;;;5018920;28;20037;-81
2022/08/14 03:55:46;;;;;;;5.13;3.38;;;18.20;99.90;;;;;;5018423;28;20078;-81
2022/08/14 03:58:14;;;;;;;6.10;3.35;;;18.20;99.90;;;;;;5015379;28;20041;-81
2022/08/14 04:00:40;;;;;;;6.25;3.60;;;18.20;99.90;;;;;;5019244;28;20091;-81
2022/08/14 04:03:08;;;;;;;4.88;3.10;;;18.20;99.90;;;;;;5001874;28;20055;-81
2022/08/14 04:05:36;;;;;;;5.97;3.60;;;18.10;99.90;;;;;;5034906;28;20128;-81
2022/08/14 04:08:02;;;;;;;6.85;3.97;;;18.20;99.90;;;;;;5018385;28;20174;-81
2022/08/14 04:10:28;;;;;;;5.20;3.33;;;18.20;99.90;;;;;;5018595;28;20048;-82
2022/08/14 04:13:00;;;;;;;8.23;3.80;;;18.10;99.90;;;;;;5018298;28;20418;-83
2022/08/14 04:15:26;;;;;;;11.80;4.07;;;18.10;99.90;;;;;;5009771;28;20049;-83
2022/08/14 04:17:53;;;;;;;6.95;3.35;;;18.00;99.90;;;;;;5026932;28;20083;-83
2022/08/14 04:20:20;;;;;;;6.45;3.60;;;18.00;99.90;;;;;;5018142;28;20045;-83
2022/08/14 04:22:49;;;;;;;5.63;3.47;;;18.00;99.90;;;;;;5034345;28;20045;-83
2022/08/14 04:25:15;;;;;;;5.07;3.10;;;17.90;99.90;;;;;;5035053;28;20047;-83
2022/08/14 04:27:40;;;;;;;5.05;3.33;;;17.90;99.90;;;;;;5017931;28;20135;-83
2022/08/14 04:30:07;;;;;;;6.05;3.92;;;17.90;99.90;;;;;;5002184;28;20045;-83
2022/08/14 04:32:33;;;;;;;6.00;3.35;;;17.90;99.90;;;;;;5014780;28;20045;-83
2022/08/14 04:35:00;;;;;;;7.63;3.97;;;17.90;99.90;;;;;;5022466;28;20037;-83
2022/08/14 04:45:40;;;;;;;6.95;3.90;;;18.00;99.90;;;;;;5034755;28;20049;-83
2022/08/14 04:48:12;;;;;;;5.50;3.10;;;18.00;99.90;;;;;;5034250;28;20048;-83
2022/08/14 04:50:46;;;;;;;6.03;3.75;;;18.00;99.90;;;;;;5027351;28;20040;-83
2022/08/14 04:53:14;;;;;;;6.88;3.65;;;18.10;99.90;;;;;;5038494;28;20102;-83
2022/08/14 04:55:47;;;;;;;6.55;3.70;;;18.10;99.90;;;;;;5038049;28;20044;-83
2022/08/14 04:58:23;;;;;;;6.45;3.50;;;18.20;99.90;;;;;;5021959;28;20132;-83
2022/08/14 05:00:51;;;;;;;8.52;4.35;;;18.30;99.90;;;;;;5037387;28;20045;-83
2022/08/14 05:03:22;;;;;;;7.90;3.78;;;18.40;99.90;;;;;;5036258;28;20092;-83
2022/08/14 05:05:49;;;;;;;6.55;4.40;;;19.00;99.90;;;;;;5038415;28;20095;-83
2022/08/14 05:08:15;;;;;;;9.70;5.10;;;19.40;99.90;;;;;;5021386;28;20055;-83
2022/08/14 05:10:51;;;;;;;7.18;4.60;;;19.50;99.90;;;;;;5021122;28;20127;-83
2022/08/14 05:13:18;;;;;;;9.07;4.50;;;20.10;99.90;;;;;;5037630;28;20059;-83
2022/08/14 05:15:45;;;;;;;9.27;5.10;;;20.30;99.90;;;;;;5032847;28;20119;-83
2022/08/14 05:18:14;;;;;;;8.02;4.88;;;20.30;99.90;;;;;;5026459;28;20072;-83
2022/08/14 05:20:42;;;;;;;6.60;4.18;;;20.40;99.90;;;;;;5037499;28;20045;-83
2022/08/14 05:23:09;;;;;;;7.68;4.88;;;20.40;99.90;;;;;;5021627;28;20033;-83
2022/08/14 05:25:36;;;;;;;7.93;4.88;;;20.30;99.90;;;;;;5021325;28;20036;-83
2022/08/14 05:28:06;;;;;;;8.88;5.00;;;20.20;99.90;;;;;;5020917;28;20033;-83
2022/08/14 05:30:32;;;;;;;7.20;4.70;;;20.10;99.90;;;;;;5021048;28;20513;-83
2022/08/14 05:33:00;;;;;;;7.70;5.53;;;20.00;99.90;;;;;;5017390;28;20086;-83
2022/08/14 05:35:26;;;;;;;8.35;5.20;;;20.00;99.90;;;;;;5011008;28;20052;-83
2022/08/14 05:37:52;;;;;;;7.97;5.32;;;20.00;99.90;;;;;;5021106;28;20388;-83
2022/08/14 05:40:18;;;;;;;7.90;4.90;;;20.10;99.90;;;;;;5037804;28;20436;-83
2022/08/14 05:42:44;;;;;;;8.15;5.50;;;20.10;99.90;;;;;;5036803;28;20033;-83
2022/08/14 05:45:10;;;;;;;9.20;4.93;;;20.10;99.90;;;;;;5037455;28;20060;-83
2022/08/14 05:47:40;;;;;;;8.43;5.38;;;20.20;99.90;;;;;;5037079;28;20064;-83
2022/08/14 05:50:08;;;;;;;14.07;5.60;;;20.30;99.90;;;;;;5036690;28;20534;-83
2022/08/14 05:52:34;;;;;;;6.30;4.32;;;20.30;99.90;;;;;;5018968;28;20095;-83
2022/08/14 05:54:59;;;;;;;6.68;4.30;;;20.40;99.90;;;;;;5004943;28;20041;-83
2022/08/14 05:57:25;;;;;;;8.60;5.47;;;20.50;99.90;;;;;;5037111;28;20064;-83
2022/08/14 05:59:51;;;;;;;7.20;4.45;;;20.60;99.90;;;;;;5037650;28;20068;-83
2022/08/14 06:02:17;;;;;;;8.68;4.57;;;20.70;99.90;;;;;;5018747;28;20483;-83
2022/08/14 06:04:47;;;;;;;7.53;4.88;;;20.80;99.90;;;;;;5020472;28;20099;-83
2022/08/14 06:07:13;;;;;;;7.82;4.85;;;21.70;99.90;;;;;;5016999;28;20495;-83
2022/08/14 06:09:39;;;;;;;7.45;4.78;;;23.10;99.90;;;;;;4984780;28;20048;-83
2022/08/14 06:12:06;;;;;;;8.43;4.53;;;23.10;99.90;;;;;;5017242;28;20034;-83
2022/08/14 06:14:32;;;;;;;9.05;4.68;;;24.20;99.90;;;;;;5037063;28;20071;-83
2022/08/14 06:16:58;;;;;;;8.77;4.93;;;25.40;99.90;;;;;;5035750;28;20491;-83
2022/08/14 06:19:24;;;;;;;7.82;4.53;;;26.40;99.80;;;;;;5036595;28;20052;-83
2022/08/14 06:21:50;;;;;;;7.40;4.68;;;27.10;97.00;;;;;;5003760;28;20044;-83
2022/08/14 06:24:15;;;;;;;6.03;4.30;;;27.50;95.40;;;;;;5002915;28;20044;-82
2022/08/14 06:26:41;;;;;;;7.97;3.50;;;27.70;95.70;;;;;;5017976;28;20041;-82
2022/08/14 06:29:09;;;;;;;5.53;3.80;;;28.60;95.00;;;;;;5030782;28;20071;-81
2022/08/14 06:31:34;;;;;;;6.43;4.05;;;29.20;93.30;;;;;;5019392;28;20119;-81
2022/08/14 06:34:00;;;;;;;4.72;3.45;;;29.30;92.00;;;;;;5020135;28;20528;-81
2022/08/14 06:36:26;;;;;;;6.05;4.20;;;29.60;92.10;;;;;;5036149;28;20142;-82
2022/08/14 06:38:52;;;;;;;6.03;3.95;;;29.60;91.80;;;;;;5036544;28;20491;-82
2022/08/14 06:41:18;;;;;;;7.15;3.97;;;29.80;90.90;;;;;;5036695;28;20147;-82
2022/08/14 06:43:44;;;;;;;5.07;3.60;;;30.50;90.00;;;;;;5035736;28;20102;-82
2022/08/14 06:46:09;;;;;;;6.88;3.92;;;30.80;90.20;;;;;;5019227;28;20443;-82
2022/08/14 06:48:35;;;;;;;5.82;3.90;;;31.20;90.20;;;;;;5016333;28;20037;-82
2022/08/14 06:51:01;;;;;;;5.53;3.78;;;30.90;86.00;;;;;;4990982;28;20037;-82
2022/08/14 06:53:27;;;;;;;6.32;3.92;;;31.50;87.00;;;;;;5023005;28;20033;-82
2022/08/14 06:55:52;;;;;;;6.05;3.80;;;31.10;86.40;;;;;;5011551;28;20040;-82
2022/08/14 06:58:18;;;;;;;5.93;3.55;;;31.20;84.70;;;;;;5002801;28;20555;-84
2022/08/14 07:06:14;;;;;;;4.43;3.22;;;31.90;84.30;;;;;;5040099;28;20048;-84
2022/08/14 07:08:42;;;;;;;5.78;3.63;;;31.40;83.70;;;;;;5035869;28;20049;-84
2022/08/14 07:11:08;;;;;;;7.28;3.80;;;31.20;83.00;;;;;;5019107;28;20435;-84
2022/08/14 07:13:34;;;;;;;6.10;4.03;;;31.80;83.00;;;;;;5033993;28;20095;-82
2022/08/14 07:16:01;;;;;;;5.18;3.15;;;32.30;82.20;;;;;;5016583;28;20045;-82
2022/08/14 07:18:29;;;;;;;5.22;3.20;;;32.90;82.80;;;;;;5028008;23;20061;-84
2022/08/14 07:20:57;;;;;;;5.70;3.55;;;33.30;81.30;;;;;;5021389;28;20157;-84
2022/08/14 07:23:24;;;;;;;7.72;4.35;;;34.10;80.70;;;;;;5014967;28;20045;-84
2022/08/14 07:25:52;;;;;;;6.00;3.67;;;34.40;78.80;;;;;;5032150;28;20501;-84
2022/08/14 07:28:33;;;;;;;8.40;3.42;;;34.30;77.90;;;;;;5015650;28;20044;-84
2022/08/14 07:31:02;;;;;;;5.05;3.60;;;34.10;77.70;;;;;;4999432;28;20034;-83
2022/08/14 07:33:31;;;;;;;5.10;3.13;;;34.20;78.20;;;;;;5015464;28;20144;-83
2022/08/14 07:36:02;;;;;;;7.03;3.10;;;34.50;77.40;;;;;;5027970;28;20056;-84
2022/08/14 07:38:28;;;;;;;4.65;3.35;;;34.80;76.50;;;;;;5017275;28;20037;-84
2022/08/14 07:40:54;;;;;;;5.82;3.47;;;34.90;76.00;;;;;;4981271;28;20121;-84
2022/08/14 07:43:21;;;;;;;4.45;2.90;;;34.90;76.40;;;;;;4999324;28;20084;-85
2022/08/14 07:45:47;;;;;;;5.50;3.20;;;35.50;75.10;;;;;;4983353;28;20045;-85
2022/08/14 07:48:13;;;;;;;6.20;3.72;;;34.80;74.20;;;;;;5032301;28;20085;-82
2022/08/14 07:50:38;;;;;;;3.95;2.70;;;35.00;74.20;;;;;;5031911;28;20081;-82
2022/08/14 07:53:08;;;;;;;5.10;3.30;;;34.60;73.80;;;;;;4999423;28;20045;-82
2022/08/14 07:55:35;;;;;;;4.93;3.75;;;34.10;74.40;;;;;;4993869;28;20148;-82
2022/08/14 07:58:02;;;;;;;5.50;3.33;;;34.20;75.60;;;;;;4979685;28;20045;-82
2022/08/14 08:00:29;;;;;;;5.40;3.15;;;34.90;75.00;;;;;;4979828;28;20404;-82
2022/08/14 08:02:55;;;;;;;5.85;3.10;;;34.70;73.70;;;;;;5031772;28;20042;-82
2022/08/14 08:05:23;;;;;;;4.70;3.10;;;35.00;75.10;;;;;;4998760;28;20044;-82
2022/08/14 08:07:50;;;;;;;4.93;2.83;;;35.40;73.60;;;;;;5012436;28;20045;-82
2022/08/14 08:10:31;;;;;;;4.95;3.15;;;35.90;73.20;;;;;;4999412;28;20041;-82
2022/08/14 08:13:06;;;;;;;5.07;3.17;;;36.30;71.00;;;;;;5031765;28;20083;-82
2022/08/14 08:15:41;;;;;;;4.25;2.78;;;36.50;72.00;;;;;;5008522;28;20052;-82
2022/08/14 08:18:11;;;;;;;5.90;3.33;;;36.50;72.00;;;;;;5003415;28;20061;-82
2022/08/14 08:20:40;;;;;;;4.47;2.67;;;36.10;70.40;;;;;;5031850;28;20076;-84
2022/08/14 08:23:08;;;;;;;3.83;2.80;;;36.90;70.90;;;;;;5030945;28;20037;-85
2022/08/14 08:25:37;;;;;;;3.95;2.97;;;36.90;70.40;;;;;;4999988;28;20556;-85
2022/08/14 08:28:07;;;;;;;10.15;3.35;;;37.50;70.60;;;;;;5017874;28;20046;-85
2022/08/14 08:30:36;;;;;;;3.92;2.85;;;37.40;69.90;;;;;;5017924;28;20084;-85
2022/08/14 08:33:03;;;;;;;4.75;3.00;;;37.60;69.90;;;;;;5035498;28;20430;-85
2022/08/14 08:35:34;;;;;;;4.07;2.65;;;37.50;70.40;;;;;;5035604;28;20045;-85
2022/08/14 08:38:17;;;;;;;4.47;2.78;;;38.10;69.00;;;;;;5016931;28;20034;-84
2022/08/14 08:40:47;;;;;;;4.53;3.20;;;38.30;68.20;;;;;;5018587;28;20045;-85
2022/08/14 08:43:20;;;;;;;4.63;2.95;;;38.70;70.30;;;;;;5019296;28;20107;-85
2022/08/14 08:46:04;;;;;;;3.80;2.88;;;38.40;69.20;;;;;;5035260;28;20056;-85
2022/08/14 08:48:42;;;;;;;5.70;2.80;;;38.70;68.30;;;;;;5000804;28;20074;-85
2022/08/14 08:51:08;;;;;;;4.60;2.75;;;38.50;66.50;;;;;;5001501;28;20050;-85
2022/08/14 08:53:35;;;;;;;4.03;3.00;;;38.80;67.10;;;;;;5018754;28;20045;-85
2022/08/14 08:56:01;;;;;;;4.30;2.90;;;38.30;66.40;;;;;;5018683;28;20037;-85
2022/08/14 08:58:28;;;;;;;4.05;2.60;;;38.50;67.10;;;;;;5018508;28;20056;-85
2022/08/14 09:00:56;;;;;;;4.35;2.97;;;37.30;66.00;;;;;;5016362;28;20041;-85
2022/08/14 09:03:26;;;;;;;4.07;2.78;;;36.40;66.50;;;;;;5018541;28;20500;-85
2022/08/14 09:05:58;;;;;;;5.22;2.90;;;36.10;68.80;;;;;;5002168;28;20056;-85
2022/08/14 09:08:26;;;;;;;3.85;2.80;;;36.20;68.20;;;;;;5018584;28;20128;-85
2022/08/14 09:10:54;;;;;;;4.43;2.97;;;36.60;67.70;;;;;;5034496;28;20048;-82
2022/08/14 09:13:24;;;;;;;4.13;2.90;;;36.60;68.80;;;;;;5016153;28;20038;-82
2022/08/14 09:15:52;;;;;;;4.13;2.50;;;37.10;68.00;;;;;;5046017;28;20044;-82
2022/08/14 09:18:21;;;;;;;3.80;2.60;;;37.90;67.10;;;;;;5034480;28;20408;-82
2022/08/14 09:20:52;;;;;;;5.88;2.50;;;38.40;66.70;;;;;;5027699;28;20103;-82
2022/08/14 09:23:17;;;;;;;5.82;2.75;;;38.60;66.30;;;;;;4998463;28;20038;-82
2022/08/14 09:25:46;;;;;;;4.28;2.92;;;38.30;65.20;;;;;;4997489;28;20045;-82
2022/08/14 09:28:13;;;;;;;3.50;2.38;;;38.70;65.40;;;;;;5031774;28;20042;-85
2022/08/14 09:30:43;;;;;;;3.90;2.58;;;38.30;65.60;;;;;;5031321;28;20038;-85
2022/08/14 09:33:34;;;;;;;4.00;2.67;;;38.50;65.60;;;;;;5028846;28;20437;-85
2022/08/14 09:36:18;;;;;;;4.07;2.95;;;38.80;65.80;;;;;;5028759;28;20500;-85
2022/08/14 09:39:08;;;;;;;3.80;2.60;;;39.10;64.90;;;;;;4998533;28;20054;-85
2022/08/14 09:42:09;;;;;;;4.20;2.97;;;39.20;64.00;;;;;;5014152;28;20100;-85
2022/08/14 09:45:01;;;;;;;4.13;2.80;;;38.70;65.80;;;;;;5031443;28;20365;-85
2022/08/14 09:47:53;;;;;;;5.60;2.53;;;39.00;65.00;;;;;;5030298;28;20045;-85
2022/08/14 09:50:43;;;;;;;4.28;2.55;;;39.60;63.60;;;;;;5030894;28;20052;-85
2022/08/14 09:53:09;;;;;;;5.00;2.95;;;39.50;63.50;;;;;;5013998;28;20116;-83
2022/08/14 09:55:36;;;;;;;3.88;2.30;;;39.00;63.60;;;;;;5030785;28;20038;-83
2022/08/14 09:58:14;;;;;;;3.97;2.85;;;39.70;65.00;;;;;;4995835;28;20088;-82
2022/08/14 10:00:59;;;;;;;3.90;2.55;;;39.30;62.90;;;;;;4994801;28;20480;-83
2022/08/14 10:03:35;;;;;;;4.05;2.70;;;38.90;63.70;;;;;;4994235;28;20403;-83
2022/08/14 10:06:20;;;;;;;3.50;2.60;;;38.80;64.00;;;;;;5030832;28;20135;-83
2022/08/14 10:08:49;;;;;;;3.65;2.63;;;38.60;65.80;;;;;;5011810;28;20042;-83
2022/08/14 10:11:23;;;;;;;4.50;2.60;;;38.80;64.00;;;;;;5030603;28;20373;-83
2022/08/14 10:13:53;;;;;;;3.28;2.50;;;39.00;64.40;;;;;;5027238;28;20407;-83
2022/08/14 10:16:28;;;;;;;3.28;1.92;;;39.20;62.80;;;;;;5039303;28;20045;-82
2022/08/14 10:19:06;;;;;;;4.40;2.40;;;39.50;64.30;;;;;;4996247;28;20058;-84
2022/08/14 10:21:33;;;;;;;3.10;2.25;;;40.00;62.70;;;;;;5029086;28;20533;-85
2022/08/14 10:23:58;;;;;;;5.50;2.67;;;40.10;64.10;;;;;;5012983;28;20045;-85
2022/08/14 10:26:24;;;;;;;3.80;2.50;;;39.70;62.10;;;;;;4996302;28;20042;-85
2022/08/14 10:28:52;;;;;;;3.70;2.47;;;39.70;62.50;;;;;;5028295;28;20045;-83
2022/08/14 10:31:22;;;;;;;4.38;2.47;;;39.30;62.90;;;;;;5025489;28;20042;-83
2022/08/14 10:34:08;;;;;;;3.30;2.30;;;39.60;63.90;;;;;;5025571;28;20041;-83
2022/08/14 10:36:40;;;;;;;3.30;2.30;;;39.20;62.40;;;;;;5011757;28;20496;-83
2022/08/14 10:39:26;;;;;;;3.63;2.50;;;39.60;62.80;;;;;;5030163;28;20053;-83
2022/08/14 10:42:07;;;;;;;2.90;2.10;;;39.00;62.50;;;;;;5011707;28;20038;-85
2022/08/14 10:44:44;;;;;;;4.40;2.58;;;39.60;63.50;;;;;;5011486;28;20053;-83
2022/08/14 10:47:11;;;;;;;3.30;2.42;;;39.50;64.20;;;;;;5027850;28;20049;-83
2022/08/14 10:49:54;;;;;;;5.97;2.60;;;38.80;62.10;;;;;;5012480;28;20060;-83
2022/08/14 10:52:23;;;;;;;3.63;2.40;;;38.40;63.60;;;;;;4995443;28;20045;-83
2022/08/14 10:54:50;;;;;;;3.67;2.45;;;37.90;62.50;;;;;;5028210;28;20531;-83
2022/08/14 10:57:26;;;;;;;5.25;2.63;;;38.10;64.60;;;;;;4995571;28;20103;-83
2022/08/14 10:59:53;;;;;;;3.28;2.20;;;38.40;64.60;;;;;;5012778;28;20034;-83
2022/08/14 11:02:28;;;;;;;3.88;2.38;;;38.50;64.10;;;;;;5027484;28;20053;-83
2022/08/14 11:05:13;;;;;;;3.67;2.40;;;38.90;63.00;;;;;;5028681;28;20042;-83
2022/08/14 11:07:42;;;;;;;2.75;2.10;;;38.40;62.90;;;;;;5028928;28;20029;-81
2022/08/14 11:10:13;;;;;;;3.10;2.25;;;38.20;62.60;;;;;;5029048;28;20048;-80
2022/08/14 11:12:50;;;;;;;4.18;2.17;;;37.60;63.20;;;;;;5027391;28;20052;-83
2022/08/14 11:15:21;;;;;;;3.40;1.95;;;37.60;65.30;;;;;;5028495;28;20038;-80
2022/08/14 11:17:49;;;;;;;4.97;2.70;;;37.00;63.60;;;;;;4983697;28;20062;-80
2022/08/14 11:20:17;;;;;;;4.18;2.67;;;36.90;64.50;;;;;;4986765;28;20034;-80
2022/08/14 11:22:44;;;;;;;3.78;2.30;;;37.40;64.40;;;;;;4990310;28;20043;-80
2022/08/14 11:25:14;;;;;;;3.78;2.65;;;37.80;65.10;;;;;;4970511;28;20084;-83
2022/08/14 11:27:43;;;;;;;3.38;2.40;;;38.00;63.50;;;;;;4999710;28;20125;-83
2022/08/14 11:30:15;;;;;;;3.65;2.40;;;38.00;64.00;;;;;;4972709;28;20049;-83
2022/08/14 11:32:43;;;;;;;3.90;2.63;;;38.10;63.30;;;;;;4982497;28;20091;-82
2022/08/14 11:35:14;;;;;;;3.72;2.55;;;38.10;63.40;;;;;;5000308;28;20555;-82
2022/08/14 11:37:58;;;;;;;6.28;2.70;;;37.70;64.50;;;;;;4993491;28;20073;-82
2022/08/14 11:40:30;;;;;;;3.92;2.78;;;37.90;63.70;;;;;;5006403;28;20038;-82
2022/08/14 11:42:57;;;;;;;3.40;2.38;;;37.70;63.10;;;;;;4999637;28;20153;-82
2022/08/14 11:45:24;;;;;;;5.05;3.05;;;37.90;63.60;;;;;;5004443;28;20046;-82
2022/08/14 11:47:51;;;;;;;3.67;2.55;;;37.80;64.30;;;;;;4996687;28;20121;-82
2022/08/14 11:50:22;;;;;;;3.17;2.28;;;38.10;63.80;;;;;;5006241;28;20042;-83
2022/08/14 11:52:48;;;;;;;4.10;2.20;;;38.00;63.40;;;;;;4999012;28;20050;-83
2022/08/14 11:55:15;;;;;;;3.63;2.63;;;37.90;63.90;;;;;;4957423;28;20047;-83
2022/08/14 11:57:42;;;;;;;3.25;2.50;;;37.90;64.60;;;;;;4982445;28;20117;-80
2022/08/14 12:00:15;;;;;;;3.58;2.35;;;37.80;64.20;;;;;;5007898;28;20042;-80
2022/08/14 12:02:53;;;;;;;3.20;2.28;;;37.60;64.00;;;;;;4989862;28;20038;-80
2022/08/14 12:05:34;;;;;;;3.55;2.40;;;37.20;64.90;;;;;;4987460;28;20074;-80
2022/08/14 12:08:00;;;;;;;2.97;2.33;;;37.70;65.50;;;;;;4985648;28;20042;-80
2022/08/14 12:10:28;;;;;;;3.25;2.30;;;37.50;64.30;;;;;;4980684;28;20081;-80
2022/08/14 12:12:55;;;;;;;5.78;2.08;;;37.60;64.70;;;;;;4976036;28;20073;-80
2022/08/14 12:15:29;;;;;;;3.17;2.08;;;37.50;65.00;;;;;;4981688;28;20048;-82
2022/08/14 12:17:55;;;;;;;3.50;2.28;;;37.20;64.20;;;;;;4979701;28;20061;-82
2022/08/14 12:20:36;;;;;;;3.13;2.20;;;37.10;64.20;;;;;;4999121;28;20392;-82
2022/08/14 12:23:04;;;;;;;3.67;2.50;;;37.00;65.20;;;;;;4981344;28;20041;-82
2022/08/14 12:25:31;;;;;;;4.35;2.50;;;36.60;64.40;;;;;;4998101;28;20042;-83
2022/08/14 12:28:00;;;;;;;3.17;2.20;;;36.80;63.70;;;;;;4998893;28;20069;-82
2022/08/14 12:30:32;;;;;;;3.83;2.63;;;36.80;66.40;;;;;;4983823;28;20379;-82
2022/08/14 12:32:59;;;;;;;4.80;2.72;;;36.30;65.50;;;;;;5014081;28;20050;-83
2022/08/14 12:35:42;;;;;;;3.85;2.35;;;36.10;66.50;;;;;;4984997;28;20120;-82
2022/08/14 12:38:10;;;;;;;4.00;2.55;;;36.00;65.90;;;;;;5002211;28;20046;-84
2022/08/14 12:40:47;;;;;;;4.10;2.63;;;36.00;65.80;;;;;;5024461;28;20117;-84
2022/08/14 12:43:16;;;;;;;2.83;2.15;;;36.00;66.40;;;;;;5001194;28;20419;-84
2022/08/14 12:45:50;;;;;;;3.65;2.58;;;36.00;66.40;;;;;;5020580;28;20045;-84
2022/08/14 12:48:18;;;;;;;3.75;2.28;;;36.00;65.70;;;;;;4997799;28;20379;-81
2022/08/14 12:50:44;;;;;;;3.40;2.58;;;35.70;66.10;;;;;;4996131;28;20075;-81
2022/08/14 12:53:12;;;;;;;3.17;2.17;;;35.60;68.00;;;;;;5005120;28;20038;-81
2022/08/14 12:55:39;;;;;;;4.05;2.60;;;35.90;66.50;;;;;;4982730;28;20041;-81
2022/08/14 12:58:07;;;;;;;3.03;2.13;;;36.10;66.80;;;;;;4980027;28;20499;-81
2022/08/14 13:00:37;;;;;;;3.20;2.33;;;36.30;65.40;;;;;;4997940;28;20052;-81
2022/08/14 13:03:04;;;;;;;3.70;2.40;;;36.50;66.40;;;;;;4993883;28;20049;-81
2022/08/14 13:05:33;;;;;;;3.80;2.60;;;36.40;64.90;;;;;;5012095;28;20104;-84
2022/08/14 13:08:03;;;;;;;3.90;2.83;;;36.40;65.70;;;;;;4982341;28;20395;-85
2022/08/14 13:10:32;;;;;;;3.97;2.72;;;36.20;65.00;;;;;;4980821;28;20077;-85
2022/08/14 13:12:59;;;;;;;4.55;2.67;;;36.10;65.90;;;;;;4997729;28;20046;-85
2022/08/14 13:15:25;;;;;;;4.60;2.80;;;36.50;66.70;;;;;;4991071;28;20044;-85